createdAt,value
2022-08-31T00:00:41.206Z,19.79
2022-08-31T00:03:28.326Z,19.56
2022-08-31T00:05:59.058Z,19.37
2022-08-31T00:08:29.177Z,19.21
2022-08-31T00:10:57.785Z,19.44
2022-08-31T00:13:27.384Z,21.19
2022-08-31T00:15:56.119Z,22.44
2022-08-31T00:18:24.637Z,21.89
2022-08-31T00:20:53.016Z,21.11
2022-08-31T00:23:22.111Z,20.56
2022-08-31T00:25:50.726Z,20.15
2022-08-31T00:28:19.880Z,19.85
2022-08-31T00:30:49.891Z,19.60
2022-08-31T00:33:18.451Z,19.40
2022-08-31T00:35:47.081Z,19.20
2022-08-31T00:38:15.640Z,19.03
2022-08-31T00:40:46.966Z,19.26
2022-08-31T00:44:01.263Z,21.08
2022-08-31T00:46:35.683Z,22.19
2022-08-31T00:49:06.008Z,21.35
2022-08-31T00:51:38.174Z,20.61
2022-08-31T00:54:09.728Z,20.08
2022-08-31T00:56:41.691Z,19.70
2022-08-31T00:59:09.820Z,19.43
2022-08-31T01:01:38.502Z,19.19
2022-08-31T01:04:07.034Z,18.98
2022-08-31T01:06:36.536Z,18.77
2022-08-31T01:09:07.578Z,18.97
2022-08-31T01:11:38.005Z,20.77
2022-08-31T01:14:08.447Z,22.00
2022-08-31T01:16:46.421Z,21.39
2022-08-31T01:19:41.954Z,20.53
2022-08-31T01:22:19.136Z,19.88
2022-08-31T01:24:50.894Z,19.48
2022-08-31T01:27:23.778Z,19.20
2022-08-31T01:29:51.953Z,18.94
2022-08-31T01:32:20.331Z,18.73
2022-08-31T01:34:48.505Z,18.92
2022-08-31T01:37:16.783Z,20.75
2022-08-31T01:39:44.956Z,21.95
2022-08-31T01:42:13.129Z,21.30
2022-08-31T01:44:41.226Z,20.47
2022-08-31T01:47:09.668Z,19.87
2022-08-31T01:49:38.369Z,19.46
2022-08-31T01:52:07.311Z,19.14
2022-08-31T01:54:35.536Z,18.83
2022-08-31T01:57:04.171Z,18.51
2022-08-31T02:00:09.977Z,18.14
2022-08-31T02:02:44.329Z,18.39
2022-08-31T02:05:14.726Z,20.32
2022-08-31T02:07:46.479Z,21.32
2022-08-31T02:10:15.371Z,20.55
2022-08-31T02:12:43.544Z,19.74
2022-08-31T02:15:12.129Z,19.21
2022-08-31T02:17:40.608Z,18.83
2022-08-31T02:20:10.797Z,18.54
2022-08-31T02:22:39.311Z,18.30
2022-08-31T02:25:09.472Z,18.48
2022-08-31T02:27:39.140Z,20.30
2022-08-31T02:30:13.117Z,21.54
2022-08-31T02:32:41.587Z,20.91
2022-08-31T02:35:11.538Z,20.08
2022-08-31T02:37:40.033Z,19.49
2022-08-31T02:40:12.192Z,19.07
2022-08-31T02:42:53.978Z,18.75
2022-08-31T02:45:27.692Z,18.47
2022-08-31T02:48:01.959Z,18.22
2022-08-31T02:50:45.237Z,17.99
2022-08-31T02:53:15.664Z,18.22
2022-08-31T02:55:45.273Z,20.17
2022-08-31T02:58:15.290Z,21.26
2022-08-31T03:00:48.014Z,20.61
2022-08-31T03:03:17.029Z,19.77
2022-08-31T03:05:45.853Z,19.20
2022-08-31T03:08:14.436Z,18.79
2022-08-31T03:10:43.428Z,18.49
2022-08-31T03:13:12.676Z,18.21
2022-08-31T03:15:40.941Z,17.96
2022-08-31T03:18:10.510Z,17.76
2022-08-31T03:20:39.812Z,18.05
2022-08-31T03:23:07.932Z,19.95
2022-08-31T03:25:38.130Z,21.17
2022-08-31T03:28:10.784Z,20.52
2022-08-31T03:30:40.431Z,19.68
2022-08-31T03:33:10.106Z,19.09
2022-08-31T03:35:44.072Z,18.69
2022-08-31T03:38:14.186Z,18.36
2022-08-31T03:40:44.430Z,18.07
2022-08-31T03:43:13.901Z,17.84
2022-08-31T03:45:44.173Z,18.03
2022-08-31T03:48:13.333Z,19.88
2022-08-31T03:50:44.544Z,21.12
2022-08-31T03:53:22.674Z,20.41
2022-08-31T03:55:52.140Z,19.54
2022-08-31T03:58:20.317Z,18.95
2022-08-31T04:00:49.199Z,18.54
2022-08-31T04:03:31.094Z,18.17
2022-08-31T04:06:18.314Z,17.85
2022-08-31T04:09:05.536Z,17.61
2022-08-31T04:12:09.929Z,18.13
2022-08-31T04:14:56.876Z,20.30
2022-08-31T04:17:45.631Z,20.45
2022-08-31T04:20:30.031Z,19.45
2022-08-31T04:22:58.670Z,18.72
2022-08-31T04:25:39.058Z,18.15
2022-08-31T04:28:09.298Z,17.76
2022-08-31T04:30:41.567Z,17.49
2022-08-31T04:33:10.103Z,17.79
2022-08-31T04:35:41.045Z,19.68
2022-08-31T04:38:12.216Z,20.86
2022-08-31T04:40:42.371Z,20.20
2022-08-31T04:43:11.468Z,19.36
2022-08-31T04:45:45.952Z,18.82
2022-08-31T04:48:15.326Z,18.45
2022-08-31T04:50:44.218Z,18.57
2022-08-31T04:53:13.011Z,20.31
2022-08-31T04:55:43.021Z,21.72
2022-08-31T04:58:14.038Z,21.36
2022-08-31T05:00:44.192Z,20.46
2022-08-31T05:03:35.192Z,19.72
2022-08-31T05:06:05.005Z,19.28
2022-08-31T05:08:33.590Z,18.93
2022-08-31T05:11:11.901Z,19.50
2022-08-31T05:13:40.892Z,21.32
2022-08-31T05:16:11.272Z,21.83
2022-08-31T05:18:42.162Z,20.93
2022-08-31T05:21:19.649Z,20.11
2022-08-31T05:23:49.052Z,19.54
2022-08-31T05:26:26.029Z,19.17
2022-08-31T05:28:55.536Z,19.44
2022-08-31T05:31:25.513Z,21.25
2022-08-31T05:33:54.342Z,22.08
2022-08-31T05:36:29.275Z,21.19
2022-08-31T05:39:01.103Z,20.28
2022-08-31T05:41:30.771Z,19.61
2022-08-31T05:43:59.020Z,19.19
2022-08-31T05:46:27.751Z,19.24
2022-08-31T05:48:56.185Z,20.89
2022-08-31T05:51:25.793Z,22.04
2022-08-31T05:53:54.171Z,21.40
2022-08-31T05:56:27.171Z,20.57
2022-08-31T05:58:57.688Z,19.93
2022-08-31T06:01:31.375Z,19.51
2022-08-31T06:04:05.204Z,19.17
2022-08-31T06:06:33.952Z,19.72
2022-08-31T06:09:02.159Z,21.46
2022-08-31T06:11:32.160Z,22.26
2022-08-31T06:14:02.399Z,21.50
2022-08-31T06:16:33.455Z,20.67
2022-08-31T06:19:07.306Z,20.07
2022-08-31T06:21:49.865Z,19.57
2022-08-31T06:24:22.947Z,20.19
2022-08-31T06:26:58.420Z,21.88
2022-08-31T06:29:33.266Z,22.35
2022-08-31T06:32:08.406Z,21.44
2022-08-31T06:34:42.813Z,20.59
2022-08-31T06:37:33.945Z,19.99
2022-08-31T06:40:02.260Z,20.00
2022-08-31T06:42:39.250Z,21.65
2022-08-31T06:45:28.518Z,22.66
2022-08-31T06:48:16.968Z,21.70
2022-08-31T06:50:45.451Z,20.79
2022-08-31T06:53:14.387Z,20.13
2022-08-31T06:56:20.285Z,20.66
2022-08-31T06:59:08.543Z,22.54
2022-08-31T07:01:54.495Z,22.71
2022-08-31T07:04:36.435Z,21.63
2022-08-31T07:07:06.355Z,20.79
2022-08-31T07:09:35.653Z,20.35
2022-08-31T07:12:05.008Z,21.62
2022-08-31T07:14:33.700Z,23.09
2022-08-31T07:17:05.719Z,22.80
2022-08-31T07:19:35.106Z,21.78
2022-08-31T07:22:08.412Z,21.01
2022-08-31T07:24:39.033Z,20.43
2022-08-31T07:27:12.224Z,20.68
2022-08-31T07:29:46.123Z,22.51
2022-08-31T07:32:17.700Z,23.40
2022-08-31T07:34:50.482Z,22.61
2022-08-31T07:37:45.884Z,21.64
2022-08-31T07:40:33.459Z,20.93
2022-08-31T07:43:05.063Z,20.98
2022-08-31T07:45:39.343Z,22.71
2022-08-31T07:48:09.195Z,23.63
2022-08-31T07:51:14.558Z,22.64
2022-08-31T07:54:07.188Z,21.69
2022-08-31T07:57:04.649Z,21.04
2022-08-31T07:59:34.769Z,21.55
2022-08-31T08:02:05.221Z,23.28
2022-08-31T08:04:39.512Z,23.66
2022-08-31T08:07:35.232Z,22.55
2022-08-31T08:10:34.228Z,21.67
2022-08-31T08:13:21.575Z,21.11
2022-08-31T08:15:53.147Z,21.23
2022-08-31T08:18:21.893Z,22.94
2022-08-31T08:20:55.392Z,23.99
2022-08-31T08:23:28.427Z,23.27
2022-08-31T08:26:21.574Z,22.30
2022-08-31T08:29:10.809Z,21.58
2022-08-31T08:31:43.639Z,21.16
2022-08-31T08:34:12.148Z,21.35
2022-08-31T08:36:41.062Z,23.08
2022-08-31T08:39:12.939Z,24.06
2022-08-31T08:41:51.431Z,23.25
2022-08-31T08:44:29.067Z,22.37
2022-08-31T08:47:00.682Z,21.74
2022-08-31T08:49:52.177Z,21.30
2022-08-31T08:52:28.364Z,21.54
2022-08-31T08:55:03.706Z,23.39
2022-08-31T08:57:39.457Z,24.46
2022-08-31T09:00:18.969Z,23.62
2022-08-31T09:03:18.274Z,22.65
2022-08-31T09:06:13.923Z,21.89
2022-08-31T09:09:09.025Z,21.46
2022-08-31T09:12:14.542Z,22.10
2022-08-31T09:14:50.019Z,24.37
2022-08-31T09:17:37.036Z,23.92
2022-08-31T09:20:08.793Z,22.90
2022-08-31T09:22:55.910Z,22.24
2022-08-31T09:25:30.024Z,21.76
2022-08-31T09:28:36.189Z,21.39
2022-08-31T09:31:05.232Z,21.14
2022-08-31T09:33:46.790Z,20.96
2022-08-31T09:36:23.972Z,21.53
2022-08-31T09:38:52.539Z,23.88
2022-08-31T09:41:29.521Z,24.09
2022-08-31T09:44:22.782Z,23.23
2022-08-31T09:46:57.104Z,22.52
2022-08-31T09:49:37.040Z,22.11
2022-08-31T09:52:20.482Z,21.80
2022-08-31T09:55:13.553Z,21.59
2022-08-31T09:57:44.887Z,21.43
2022-08-31T10:00:21.458Z,21.31
2022-08-31T10:02:58.164Z,21.21
2022-08-31T10:05:33.168Z,21.10
2022-08-31T10:08:09.778Z,21.01
2022-08-31T10:10:41.244Z,20.93
2022-08-31T10:13:38.137Z,20.87
2022-08-31T10:16:38.063Z,20.82
2022-08-31T10:19:19.746Z,21.69
2022-08-31T10:21:55.292Z,24.18
2022-08-31T10:24:29.203Z,24.24
2022-08-31T10:27:38.748Z,23.39
2022-08-31T10:30:09.943Z,22.67
2022-08-31T10:32:46.187Z,22.32
2022-08-31T10:35:26.612Z,22.05
2022-08-31T10:38:08.815Z,21.82
2022-08-31T10:40:50.756Z,21.63
2022-08-31T10:43:34.802Z,21.48
2022-08-31T10:46:04.484Z,21.38
2022-08-31T10:48:34.205Z,21.30
2022-08-31T10:51:46.914Z,21.25
2022-08-31T10:54:34.218Z,21.19
2022-08-31T10:57:32.605Z,21.17
2022-08-31T11:00:09.478Z,21.13
2022-08-31T11:02:43.695Z,21.11
2022-08-31T11:05:31.427Z,21.09
2022-08-31T11:08:02.775Z,21.08
2022-08-31T11:10:47.646Z,21.07
2022-08-31T11:13:49.301Z,21.04
2022-08-31T11:16:36.755Z,21.01
2022-08-31T11:19:28.451Z,20.99
2022-08-31T11:21:59.596Z,20.98
2022-08-31T11:24:52.448Z,20.99
2022-08-31T11:27:24.819Z,21.02
2022-08-31T11:29:59.444Z,21.06
2022-08-31T11:32:43.336Z,21.10
2022-08-31T11:35:12.893Z,21.14
2022-08-31T11:37:53.252Z,21.19
2022-08-31T11:40:42.342Z,21.26
2022-08-31T11:43:32.198Z,21.30
2022-08-31T11:46:28.919Z,21.34
2022-08-31T11:49:01.223Z,21.39
2022-08-31T11:51:41.727Z,21.42
2022-08-31T11:54:42.310Z,21.43
2022-08-31T11:57:16.164Z,21.44
2022-08-31T11:59:49.613Z,21.44
2022-08-31T12:02:20.987Z,21.44
2022-08-31T12:04:52.410Z,21.44
2022-08-31T12:07:30.893Z,21.45
2022-08-31T12:10:07.852Z,21.45
2022-08-31T12:13:08.135Z,21.43
2022-08-31T12:16:15.208Z,21.44
2022-08-31T12:19:04.901Z,21.45
2022-08-31T12:21:57.652Z,21.48
2022-08-31T12:24:49.089Z,21.51
2022-08-31T12:27:59.226Z,21.57
2022-08-31T12:30:28.308Z,21.65
2022-08-31T12:33:02.435Z,21.73
2022-08-31T12:35:33.170Z,21.82
2022-08-31T12:38:07.594Z,21.90
2022-08-31T12:40:48.597Z,21.95
2022-08-31T12:43:22.574Z,21.98
2022-08-31T12:46:07.754Z,21.97
2022-08-31T12:48:36.025Z,21.95
2022-08-31T12:51:59.519Z,21.92
2022-08-31T12:54:47.021Z,21.90
2022-08-31T12:57:38.032Z,21.89
2022-08-31T13:00:26.479Z,21.90
2022-08-31T13:03:00.261Z,21.91
2022-08-31T13:05:35.218Z,21.88
2022-08-31T13:08:21.466Z,21.85
2022-08-31T13:10:49.899Z,21.81
2022-08-31T13:13:25.240Z,21.80
2022-08-31T13:16:01.504Z,21.78
2022-08-31T13:18:31.144Z,21.77
2022-08-31T13:21:05.779Z,21.74
2022-08-31T13:23:41.013Z,21.73
2022-08-31T13:26:20.010Z,21.71
2022-08-31T13:28:57.597Z,21.70
2022-08-31T13:31:35.293Z,21.71
2022-08-31T13:34:07.772Z,21.73
2022-08-31T13:36:47.238Z,21.73
2022-08-31T13:39:31.969Z,21.73
2022-08-31T13:42:10.078Z,21.72
2022-08-31T13:44:44.495Z,21.73
2022-08-31T13:47:27.423Z,21.72
2022-08-31T13:50:07.492Z,21.73
2022-08-31T13:52:37.690Z,21.73
2022-08-31T13:55:10.900Z,21.72
2022-08-31T13:57:40.539Z,21.72
2022-08-31T14:00:32.832Z,21.71
2022-08-31T14:03:32.394Z,21.68
2022-08-31T14:06:26.729Z,21.66
2022-08-31T14:09:17.631Z,21.63
2022-08-31T14:12:01.577Z,21.60
2022-08-31T14:14:41.118Z,21.56
2022-08-31T14:17:18.096Z,21.51
2022-08-31T14:19:46.423Z,21.47
2022-08-31T14:22:33.390Z,21.43
2022-08-31T14:25:02.895Z,21.41
2022-08-31T14:27:31.171Z,21.39
2022-08-31T14:30:00.358Z,21.38
2022-08-31T14:32:29.390Z,21.36
2022-08-31T14:34:59.483Z,21.35
2022-08-31T14:37:30.523Z,21.34
2022-08-31T14:40:04.298Z,21.34
2022-08-31T14:42:38.854Z,21.34
2022-08-31T14:45:12.862Z,21.34
2022-08-31T14:47:42.896Z,21.33
2022-08-31T14:50:18.475Z,21.34
2022-08-31T14:52:55.703Z,21.33
2022-08-31T14:55:25.731Z,21.35
2022-08-31T14:58:05.306Z,21.37
2022-08-31T15:00:37.951Z,21.41
2022-08-31T15:03:06.330Z,21.45
2022-08-31T15:05:39.430Z,21.50
2022-08-31T15:08:08.653Z,21.54
2022-08-31T15:10:38.429Z,21.58
2022-08-31T15:13:09.068Z,21.60
2022-08-31T15:15:38.259Z,21.62
2022-08-31T15:18:06.841Z,21.63
2022-08-31T15:20:37.679Z,21.63
2022-08-31T15:23:08.822Z,21.61
2022-08-31T15:25:39.454Z,21.59
2022-08-31T15:28:08.958Z,21.57
2022-08-31T15:30:39.926Z,21.54
2022-08-31T15:33:08.688Z,21.52
2022-08-31T15:35:41.981Z,21.48
2022-08-31T15:38:10.778Z,21.44
2022-08-31T15:40:40.157Z,21.41
2022-08-31T15:43:16.141Z,21.39
2022-08-31T15:45:44.850Z,21.36
2022-08-31T15:48:31.624Z,21.33
2022-08-31T15:51:01.548Z,21.30
2022-08-31T15:53:30.765Z,21.27
2022-08-31T15:56:06.806Z,21.24
2022-08-31T15:58:39.317Z,21.21
2022-08-31T16:01:14.270Z,21.16
2022-08-31T16:03:49.447Z,21.13
2022-08-31T16:06:18.026Z,21.09
2022-08-31T16:08:48.247Z,21.06
2022-08-31T16:11:16.422Z,21.03
2022-08-31T16:13:52.480Z,20.99
2022-08-31T16:16:21.177Z,20.96
2022-08-31T16:18:52.105Z,20.93
2022-08-31T16:21:22.044Z,20.91
2022-08-31T16:23:59.819Z,20.89
2022-08-31T16:26:31.089Z,20.87
2022-08-31T16:29:00.366Z,20.85
2022-08-31T16:31:30.243Z,20.83
2022-08-31T16:33:58.658Z,20.81
2022-08-31T16:36:28.597Z,20.79
2022-08-31T16:38:57.409Z,20.77
2022-08-31T16:41:30.536Z,20.73
2022-08-31T16:44:19.072Z,20.70
2022-08-31T16:46:48.193Z,20.67
2022-08-31T16:49:36.197Z,20.64
2022-08-31T16:52:13.118Z,20.60
2022-08-31T16:54:45.183Z,20.57
2022-08-31T16:57:16.121Z,20.54
2022-08-31T16:59:44.864Z,20.53
2022-08-31T17:02:15.920Z,20.50
2022-08-31T17:04:53.291Z,20.47
2022-08-31T17:07:24.596Z,20.44
2022-08-31T17:10:04.767Z,20.43
2022-08-31T17:12:33.939Z,20.40
2022-08-31T17:15:03.854Z,20.37
2022-08-31T17:17:33.187Z,20.34
2022-08-31T17:20:01.431Z,20.32
2022-08-31T17:22:33.750Z,20.31
2022-08-31T17:25:04.830Z,20.29
2022-08-31T17:27:35.072Z,20.28
2022-08-31T17:30:06.384Z,20.26
2022-08-31T17:32:39.497Z,20.24
2022-08-31T17:35:19.222Z,20.21
2022-08-31T17:37:49.369Z,20.19
2022-08-31T17:40:17.802Z,20.16
2022-08-31T17:42:46.545Z,20.12
2022-08-31T17:45:15.848Z,20.06
2022-08-31T17:47:44.220Z,20.01
2022-08-31T17:50:14.343Z,19.95
2022-08-31T17:52:43.329Z,19.88
2022-08-31T17:55:12.013Z,19.82
2022-08-31T17:57:42.031Z,19.76
2022-08-31T18:00:14.719Z,19.69
2022-08-31T18:02:43.630Z,19.63
2022-08-31T18:05:16.602Z,19.57
2022-08-31T18:07:44.864Z,19.51
2022-08-31T18:10:13.038Z,19.46
2022-08-31T18:12:42.321Z,19.40
2022-08-31T18:15:12.341Z,19.34
2022-08-31T18:17:40.881Z,19.29
2022-08-31T18:20:12.800Z,19.23
2022-08-31T18:22:41.182Z,19.19
2022-08-31T18:25:10.164Z,19.13
2022-08-31T18:27:38.344Z,19.09
2022-08-31T18:30:08.134Z,19.04
2022-08-31T18:32:37.253Z,18.98
2022-08-31T18:35:13.005Z,18.93
2022-08-31T18:37:42.007Z,18.88
2022-08-31T18:40:30.145Z,18.83
2022-08-31T18:43:17.259Z,18.78
2022-08-31T18:45:50.146Z,18.72
2022-08-31T18:48:34.974Z,18.68
2022-08-31T18:51:04.205Z,18.61
2022-08-31T18:53:34.839Z,18.57
2022-08-31T18:56:09.586Z,18.53
2022-08-31T18:58:39.326Z,18.48
2022-08-31T19:01:10.575Z,18.42
2022-08-31T19:03:41.298Z,18.36
2022-08-31T19:06:17.214Z,18.30
2022-08-31T19:08:46.003Z,18.24
2022-08-31T19:11:15.074Z,18.17
2022-08-31T19:13:46.237Z,18.11
2022-08-31T19:16:21.507Z,18.06
2022-08-31T19:18:51.484Z,18.01
2022-08-31T19:21:22.126Z,17.96
2022-08-31T19:23:51.780Z,17.92
2022-08-31T19:26:22.877Z,17.87
2022-08-31T19:28:51.486Z,17.82
2022-08-31T19:31:21.777Z,17.79
2022-08-31T19:33:56.431Z,17.75
2022-08-31T19:36:27.731Z,17.72
2022-08-31T19:38:56.547Z,17.67
2022-08-31T19:41:27.826Z,17.61
2022-08-31T19:44:07.745Z,17.57
2022-08-31T19:46:52.472Z,17.52
2022-08-31T19:49:21.858Z,17.48
2022-08-31T19:51:56.330Z,17.44
2022-08-31T19:54:26.349Z,17.41
2022-08-31T19:56:54.680Z,17.38
2022-08-31T19:59:24.435Z,17.34
2022-08-31T20:01:55.863Z,17.30
2022-08-31T20:04:28.875Z,17.25
2022-08-31T20:06:58.277Z,17.20
2022-08-31T20:09:27.163Z,17.16
2022-08-31T20:11:57.116Z,17.11
2022-08-31T20:14:25.255Z,17.48
2022-08-31T20:16:55.170Z,19.93
2022-08-31T20:19:27.952Z,21.50
2022-08-31T20:22:08.238Z,20.77
2022-08-31T20:24:44.036Z,19.83
2022-08-31T20:27:18.444Z,19.24
2022-08-31T20:29:48.511Z,18.84
2022-08-31T20:32:17.187Z,18.57
2022-08-31T20:34:45.668Z,18.34
2022-08-31T20:37:14.052Z,18.13
2022-08-31T20:39:42.633Z,17.96
2022-08-31T20:42:11.010Z,17.81
2022-08-31T20:44:39.906Z,17.66
2022-08-31T20:47:29.474Z,17.53
2022-08-31T20:50:00.722Z,17.39
2022-08-31T20:52:35.245Z,17.29
2022-08-31T20:55:06.746Z,17.18
2022-08-31T20:57:41.217Z,17.09
2022-08-31T21:00:11.082Z,17.00
2022-08-31T21:02:42.542Z,16.92
2022-08-31T21:05:38.030Z,16.85
2022-08-31T21:08:00.435Z,16.79
2022-08-31T21:10:37.055Z,16.73
2022-08-31T21:13:09.298Z,16.68
2022-08-31T21:15:47.564Z,17.13
2022-08-31T21:18:17.798Z,19.90
2022-08-31T21:20:48.925Z,21.00
2022-08-31T21:23:17.543Z,20.14
2022-08-31T21:25:46.820Z,19.34
2022-08-31T21:28:17.731Z,18.82
2022-08-31T21:30:49.720Z,18.47
2022-08-31T21:33:19.863Z,18.19
2022-08-31T21:35:49.677Z,17.97
2022-08-31T21:38:19.294Z,17.80
2022-08-31T21:40:51.347Z,17.65
2022-08-31T21:43:20.857Z,17.51
2022-08-31T21:45:55.061Z,17.39
2022-08-31T21:48:25.950Z,17.28
2022-08-31T21:50:55.152Z,17.19
2022-08-31T21:53:27.468Z,17.09
2022-08-31T21:55:55.746Z,17.01
2022-08-31T21:58:25.820Z,16.93
2022-08-31T22:00:55.575Z,16.87
2022-08-31T22:03:27.447Z,16.80
2022-08-31T22:05:55.917Z,16.74
2022-08-31T22:08:28.698Z,16.69
2022-08-31T22:10:58.511Z,16.64
2022-08-31T22:13:27.201Z,16.59
2022-08-31T22:15:57.454Z,16.55
2022-08-31T22:21:32.098Z,16.47
2022-08-31T22:24:11.337Z,16.45
2022-08-31T22:26:56.572Z,16.42
2022-08-31T22:29:29.890Z,16.38
2022-08-31T22:32:02.033Z,16.36
2022-08-31T22:34:30.443Z,16.33
2022-08-31T22:36:58.689Z,16.31
2022-08-31T22:39:29.835Z,16.29
2022-08-31T22:42:01.852Z,16.81
2022-08-31T22:44:34.576Z,19.50
2022-08-31T22:47:04.527Z,20.63
2022-08-31T22:49:33.077Z,19.78
2022-08-31T22:52:01.762Z,19.01
2022-08-31T22:54:29.935Z,18.50
2022-08-31T22:56:58.825Z,18.14
2022-08-31T22:59:27.921Z,17.88
2022-08-31T23:02:03.755Z,17.69
2022-08-31T23:04:34.843Z,17.51
2022-08-31T23:07:04.575Z,17.35
2022-08-31T23:09:34.060Z,17.21
2022-08-31T23:12:05.326Z,17.08
2022-08-31T23:14:33.805Z,16.96
2022-08-31T23:17:05.414Z,16.84
2022-08-31T23:19:40.570Z,16.73
2022-08-31T23:22:12.210Z,16.63
2022-08-31T23:24:46.551Z,16.56
2022-08-31T23:27:17.678Z,16.48
2022-08-31T23:29:49.744Z,16.42
2022-08-31T23:32:21.285Z,16.37
2022-08-31T23:34:50.996Z,16.30
2022-08-31T23:37:23.678Z,16.26
2022-08-31T23:39:56.969Z,16.20
2022-08-31T23:42:28.549Z,16.14
2022-08-31T23:44:57.841Z,16.09
2022-08-31T23:47:30.094Z,16.05
2022-08-31T23:49:59.632Z,16.00
2022-08-31T23:52:34.428Z,16.56
2022-08-31T23:55:03.421Z,19.17
2022-08-31T23:57:33.631Z,20.37
